sensor_id;sensor_type;location;lat;lon;timestamp;pressure;altitude;pressure_sealevel;temperature;humidity
43745;BME280;29359;53.048;8.732;2022-10-16T00:01:31;101054.34;;;12.93;89.36
43745;BME280;29359;53.048;8.732;2022-10-16T00:03:33;101062.34;;;12.92;89.42
43745;BME280;29359;53.048;8.732;2022-10-16T00:05:40;101059.81;;;12.88;89.79
43745;BME280;29359;53.048;8.732;2022-10-16T00:07:42;101055.38;;;12.89;88.90
43745;BME280;29359;53.048;8.732;2022-10-16T00:09:43;101066.84;;;12.89;88.54
43745;BME280;29359;53.048;8.732;2022-10-16T00:11:45;101067.75;;;12.88;88.31
43745;BME280;29359;53.048;8.732;2022-10-16T00:13:48;101068.69;;;12.87;88.49
43745;BME280;29359;53.048;8.732;2022-10-16T00:15:50;101067.97;;;12.82;88.58
43745;BME280;29359;53.048;8.732;2022-10-16T00:17:51;101069.00;;;12.78;89.22
43745;BME280;29359;53.048;8.732;2022-10-16T00:19:53;101074.28;;;12.78;88.70
43745;BME280;29359;53.048;8.732;2022-10-16T00:21:54;101073.47;;;12.76;88.89
43745;BME280;29359;53.048;8.732;2022-10-16T00:24:02;101073.44;;;12.78;88.30
43745;BME280;29359;53.048;8.732;2022-10-16T00:26:07;101087.66;;;12.75;87.46
43745;BME280;29359;53.048;8.732;2022-10-16T00:28:09;101085.03;;;12.74;87.97
43745;BME280;29359;53.048;8.732;2022-10-16T00:30:11;101079.84;;;12.71;87.37
43745;BME280;29359;53.048;8.732;2022-10-16T00:32:12;101082.59;;;12.68;87.80
43745;BME280;29359;53.048;8.732;2022-10-16T00:34:14;101083.53;;;12.67;88.42
43745;BME280;29359;53.048;8.732;2022-10-16T00:36:18;101080.06;;;12.65;88.84
43745;BME280;29359;53.048;8.732;2022-10-16T00:38:20;101095.13;;;12.63;89.60
43745;BME280;29359;53.048;8.732;2022-10-16T00:40:21;101096.88;;;12.64;89.56
43745;BME280;29359;53.048;8.732;2022-10-16T00:42:23;101085.41;;;12.63;88.96
43745;BME280;29359;53.048;8.732;2022-10-16T00:45:00;101094.31;;;12.61;88.36
43745;BME280;29359;53.048;8.732;2022-10-16T00:47:02;101094.38;;;12.59;88.15
43745;BME280;29359;53.048;8.732;2022-10-16T00:49:12;101102.38;;;12.57;87.87
43745;BME280;29359;53.048;8.732;2022-10-16T00:51:18;101098.00;;;12.55;88.28
43745;BME280;29359;53.048;8.732;2022-10-16T00:53:21;101100.75;;;12.52;88.40
43745;BME280;29359;53.048;8.732;2022-10-16T00:55:24;101099.94;;;12.50;87.39
43745;BME280;29359;53.048;8.732;2022-10-16T00:57:26;101100.84;;;12.49;87.94
43745;BME280;29359;53.048;8.732;2022-10-16T00:59:36;101101.75;;;12.48;88.05
43745;BME280;29359;53.048;8.732;2022-10-16T01:01:38;101106.34;;;12.43;86.93
43745;BME280;29359;53.048;8.732;2022-10-16T01:03:40;101103.75;;;12.41;86.79
43745;BME280;29359;53.048;8.732;2022-10-16T01:05:57;101100.28;;;12.39;86.67
43745;BME280;29359;53.048;8.732;2022-10-16T01:08:17;101101.28;;;12.35;86.57
43745;BME280;29359;53.048;8.732;2022-10-16T01:15:05;101090.03;;;12.29;88.72
43745;BME280;29359;53.048;8.732;2022-10-16T01:17:28;101088.34;;;12.26;89.59
43745;BME280;29359;53.048;8.732;2022-10-16T01:22:16;101090.16;;;12.24;90.14
43745;BME280;29359;53.048;8.732;2022-10-16T01:24:41;101097.25;;;12.23;90.05
43745;BME280;29359;53.048;8.732;2022-10-16T01:27:08;101095.50;;;12.22;90.08
43745;BME280;29359;53.048;8.732;2022-10-16T01:29:18;101101.78;;;12.20;90.22
43745;BME280;29359;53.048;8.732;2022-10-16T01:31:24;101095.59;;;12.19;90.65
43745;BME280;29359;53.048;8.732;2022-10-16T01:33:34;101100.91;;;12.19;90.31
43745;BME280;29359;53.048;8.732;2022-10-16T01:35:46;101101.81;;;12.18;89.87
43745;BME280;29359;53.048;8.732;2022-10-16T01:38:14;101101.03;;;12.15;90.02
43745;BME280;29359;53.048;8.732;2022-10-16T01:40:19;101097.53;;;12.14;90.06
43745;BME280;29359;53.048;8.732;2022-10-16T01:42:24;101101.06;;;12.13;89.68
43745;BME280;29359;53.048;8.732;2022-10-16T01:44:31;101097.63;;;12.10;89.46
43745;BME280;29359;53.048;8.732;2022-10-16T01:46:36;101106.53;;;12.07;90.05
43745;BME280;29359;53.048;8.732;2022-10-16T01:48:39;101098.59;;;12.07;90.36
43745;BME280;29359;53.048;8.732;2022-10-16T01:50:43;101097.72;;;12.07;90.21
43745;BME280;29359;53.048;8.732;2022-10-16T01:52:48;101096.91;;;12.05;90.20
43745;BME280;29359;53.048;8.732;2022-10-16T01:54:52;101101.38;;;12.03;90.57
43745;BME280;29359;53.048;8.732;2022-10-16T01:56:57;101096.09;;;12.03;91.25
43745;BME280;29359;53.048;8.732;2022-10-16T01:59:06;101098.75;;;12.03;91.20
43745;BME280;29359;53.048;8.732;2022-10-16T02:01:09;101093.53;;;12.00;91.35
43745;BME280;29359;53.048;8.732;2022-10-16T02:03:14;101097.97;;;11.99;91.68
43745;BME280;29359;53.048;8.732;2022-10-16T02:05:23;101083.78;;;12.02;91.71
43745;BME280;29359;53.048;8.732;2022-10-16T02:07:26;101080.31;;;12.00;92.24
43745;BME280;29359;53.048;8.732;2022-10-16T02:09:30;101082.91;;;12.01;92.31
43745;BME280;29359;53.048;8.732;2022-10-16T02:11:32;101090.91;;;12.00;91.93
43745;BME280;29359;53.048;8.732;2022-10-16T02:13:38;101095.31;;;11.99;91.97
43745;BME280;29359;53.048;8.732;2022-10-16T02:15:40;101092.72;;;11.98;92.11
43745;BME280;29359;53.048;8.732;2022-10-16T02:17:42;101097.16;;;11.97;92.60
43745;BME280;29359;53.048;8.732;2022-10-16T02:19:44;101102.44;;;11.97;92.44
43745;BME280;29359;53.048;8.732;2022-10-16T02:21:57;101110.38;;;11.97;92.17
43745;BME280;29359;53.048;8.732;2022-10-16T02:26:31;101114.81;;;11.97;91.68
43745;BME280;29359;53.048;8.732;2022-10-16T02:28:41;101113.94;;;11.96;91.41
43745;BME280;29359;53.048;8.732;2022-10-16T02:31:11;101110.56;;;11.91;91.44
43745;BME280;29359;53.048;8.732;2022-10-16T02:33:15;101111.47;;;11.90;91.41
43745;BME280;29359;53.048;8.732;2022-10-16T02:35:19;101106.19;;;11.90;89.93
43745;BME280;29359;53.048;8.732;2022-10-16T02:37:22;101105.41;;;11.86;90.40
43745;BME280;29359;53.048;8.732;2022-10-16T02:39:23;101100.13;;;11.86;91.12
43745;BME280;29359;53.048;8.732;2022-10-16T02:41:26;101093.03;;;11.87;91.63
43745;BME280;29359;53.048;8.732;2022-10-16T02:43:27;101095.69;;;11.87;90.83
43745;BME280;29359;53.048;8.732;2022-10-16T02:45:29;101091.22;;;11.89;91.03
43745;BME280;29359;53.048;8.732;2022-10-16T02:47:30;101093.88;;;11.89;91.40
43745;BME280;29359;53.048;8.732;2022-10-16T02:49:32;101097.41;;;11.88;91.58
43745;BME280;29359;53.048;8.732;2022-10-16T02:51:33;101102.72;;;11.88;91.44
43745;BME280;29359;53.048;8.732;2022-10-16T02:53:35;101103.63;;;11.87;90.79
43745;BME280;29359;53.048;8.732;2022-10-16T02:55:36;101104.53;;;11.86;91.29
43745;BME280;29359;53.048;8.732;2022-10-16T02:57:38;101104.53;;;11.86;91.42
43745;BME280;29359;53.048;8.732;2022-10-16T02:59:41;101100.13;;;11.86;91.76
43745;BME280;29359;53.048;8.732;2022-10-16T03:01:43;101099.25;;;11.86;92.10
43745;BME280;29359;53.048;8.732;2022-10-16T03:03:44;101102.81;;;11.85;92.29
43745;BME280;29359;53.048;8.732;2022-10-16T03:05:45;101105.44;;;11.85;92.61
43745;BME280;29359;53.048;8.732;2022-10-16T03:07:47;101101.94;;;11.84;92.73
43745;BME280;29359;53.048;8.732;2022-10-16T03:09:48;101102.84;;;11.83;92.80
43745;BME280;29359;53.048;8.732;2022-10-16T03:11:50;101111.66;;;11.84;93.11
43745;BME280;29359;53.048;8.732;2022-10-16T03:13:52;101105.50;;;11.83;93.44
43745;BME280;29359;53.048;8.732;2022-10-16T03:15:53;101106.31;;;11.85;93.06
43745;BME280;29359;53.048;8.732;2022-10-16T03:17:57;101106.38;;;11.84;92.86
43745;BME280;29359;53.048;8.732;2022-10-16T03:19:59;101106.38;;;11.84;93.24
43745;BME280;29359;53.048;8.732;2022-10-16T03:22:01;101104.63;;;11.83;93.26
43745;BME280;29359;53.048;8.732;2022-10-16T03:24:03;101102.91;;;11.82;93.28
43745;BME280;29359;53.048;8.732;2022-10-16T03:26:04;101115.31;;;11.80;93.54
43745;BME280;29359;53.048;8.732;2022-10-16T03:28:06;101115.31;;;11.80;93.54
43745;BME280;29359;53.048;8.732;2022-10-16T03:30:08;101115.31;;;11.80;93.13
43745;BME280;29359;53.048;8.732;2022-10-16T03:32:10;101125.06;;;11.78;92.81
43745;BME280;29359;53.048;8.732;2022-10-16T03:34:11;101123.28;;;11.78;93.66
43745;BME280;29359;53.048;8.732;2022-10-16T03:36:13;101117.13;;;11.78;93.63
43745;BME280;29359;53.048;8.732;2022-10-16T03:38:14;101115.34;;;11.77;93.66
43745;BME280;29359;53.048;8.732;2022-10-16T03:40:16;101121.50;;;11.77;93.38
43745;BME280;29359;53.048;8.732;2022-10-16T03:42:18;101123.28;;;11.77;93.64
43745;BME280;29359;53.048;8.732;2022-10-16T03:44:19;101117.13;;;11.76;93.32
43745;BME280;29359;53.048;8.732;2022-10-16T03:46:21;101117.19;;;11.75;93.64
43745;BME280;29359;53.048;8.732;2022-10-16T03:48:22;101120.72;;;11.74;93.85
43745;BME280;29359;53.048;8.732;2022-10-16T03:50:24;101117.22;;;11.73;93.78
43745;BME280;29359;53.048;8.732;2022-10-16T03:52:25;101117.25;;;11.72;93.88
43745;BME280;29359;53.048;8.732;2022-10-16T03:54:27;101119.91;;;11.72;93.90
43745;BME280;29359;53.048;8.732;2022-10-16T03:56:28;101124.28;;;11.73;93.82
43745;BME280;29359;53.048;8.732;2022-10-16T03:58:30;101122.47;;;11.75;93.87
43745;BME280;29359;53.048;8.732;2022-10-16T04:00:31;101121.66;;;11.73;93.72
43745;BME280;29359;53.048;8.732;2022-10-16T04:02:33;101127.84;;;11.72;93.13
43745;BME280;29359;53.048;8.732;2022-10-16T04:04:34;101129.63;;;11.70;92.49
43745;BME280;29359;53.048;8.732;2022-10-16T04:06:36;101129.72;;;11.67;91.91
43745;BME280;29359;53.048;8.732;2022-10-16T04:08:37;101144.75;;;11.64;91.72
43745;BME280;29359;53.048;8.732;2022-10-16T04:10:42;101150.06;;;11.64;92.00
43745;BME280;29359;53.048;8.732;2022-10-16T04:12:44;101150.09;;;11.63;92.57
43745;BME280;29359;53.048;8.732;2022-10-16T04:14:46;101158.13;;;11.60;91.88
43745;BME280;29359;53.048;8.732;2022-10-16T04:16:47;101160.81;;;11.58;91.35
43745;BME280;29359;53.048;8.732;2022-10-16T04:18:49;101165.19;;;11.59;91.85
43745;BME280;29359;53.048;8.732;2022-10-16T04:20:50;101160.75;;;11.60;92.47
43745;BME280;29359;53.048;8.732;2022-10-16T04:22:51;101158.13;;;11.60;91.95
43745;BME280;29359;53.048;8.732;2022-10-16T04:24:53;101153.69;;;11.60;92.51
43745;BME280;29359;53.048;8.732;2022-10-16T04:26:54;101148.38;;;11.62;93.43
43745;BME280;29359;53.048;8.732;2022-10-16T04:28:56;101142.13;;;11.64;94.15
43745;BME280;29359;53.048;8.732;2022-10-16T04:30:57;101142.91;;;11.68;95.26
43745;BME280;29359;53.048;8.732;2022-10-16T04:32:59;101138.44;;;11.72;95.80
43745;BME280;29359;53.048;8.732;2022-10-16T04:35:02;101131.31;;;11.74;96.03
43745;BME280;29359;53.048;8.732;2022-10-16T04:37:04;101134.63;;;11.82;96.96
43745;BME280;29359;53.048;8.732;2022-10-16T04:39:05;101136.28;;;11.86;97.62
43745;BME280;29359;53.048;8.732;2022-10-16T04:41:07;101142.41;;;11.88;97.76
43745;BME280;29359;53.048;8.732;2022-10-16T04:43:09;101144.09;;;11.90;97.86
43745;BME280;29359;53.048;8.732;2022-10-16T04:45:10;101144.09;;;11.90;97.93
43745;BME280;29359;53.048;8.732;2022-10-16T04:47:17;101146.69;;;11.92;97.56
43745;BME280;29359;53.048;8.732;2022-10-16T04:49:18;101148.41;;;11.93;97.45
43745;BME280;29359;53.048;8.732;2022-10-16T04:51:20;101152.84;;;11.92;97.52
43745;BME280;29359;53.048;8.732;2022-10-16T04:53:21;101148.41;;;11.93;97.62
43745;BME280;29359;53.048;8.732;2022-10-16T04:55:23;101146.66;;;11.93;97.73
43745;BME280;29359;53.048;8.732;2022-10-16T04:57:25;101151.03;;;11.94;97.96
43745;BME280;29359;53.048;8.732;2022-10-16T04:59:26;101151.03;;;11.94;97.97
43745;BME280;29359;53.048;8.732;2022-10-16T05:01:28;101152.75;;;11.95;98.29
43745;BME280;29359;53.048;8.732;2022-10-16T05:03:29;101157.19;;;11.95;98.63
43745;BME280;29359;53.048;8.732;2022-10-16T05:05:36;101165.94;;;11.97;98.18
43745;BME280;29359;53.048;8.732;2022-10-16T05:07:37;101166.81;;;11.98;98.82
43745;BME280;29359;53.048;8.732;2022-10-16T05:09:39;101164.13;;;11.99;98.89
43745;BME280;29359;53.048;8.732;2022-10-16T05:11:40;101165.00;;;12.00;99.04
43745;BME280;29359;53.048;8.732;2022-10-16T05:13:42;101170.19;;;12.03;99.20
43745;BME280;29359;53.048;8.732;2022-10-16T05:15:47;101167.44;;;12.06;99.32
43745;BME280;29359;53.048;8.732;2022-10-16T05:17:52;101173.53;;;12.09;99.22
43745;BME280;29359;53.048;8.732;2022-10-16T05:19:54;101172.63;;;12.10;99.39
43745;BME280;29359;53.048;8.732;2022-10-16T05:21:55;101176.06;;;12.12;99.21
43745;BME280;29359;53.048;8.732;2022-10-16T05:23:57;101162.81;;;12.14;99.08
43745;BME280;29359;53.048;8.732;2022-10-16T05:25:59;101173.38;;;12.15;99.20
43745;BME280;29359;53.048;8.732;2022-10-16T05:28:00;101178.63;;;12.17;99.16
43745;BME280;29359;53.048;8.732;2022-10-16T05:30:02;101187.38;;;12.19;98.91
43745;BME280;29359;53.048;8.732;2022-10-16T05:32:06;101186.47;;;12.20;99.23
43745;BME280;29359;53.048;8.732;2022-10-16T05:34:08;101190.91;;;12.19;98.93
43745;BME280;29359;53.048;8.732;2022-10-16T05:36:09;101198.84;;;12.19;99.05
43745;BME280;29359;53.048;8.732;2022-10-16T05:38:11;101186.50;;;12.18;98.54
43745;BME280;29359;53.048;8.732;2022-10-16T05:41:58;101195.38;;;12.17;98.54
43745;BME280;29359;53.048;8.732;2022-10-16T05:46:09;101194.56;;;12.14;98.79
43745;BME280;29359;53.048;8.732;2022-10-16T05:48:11;101196.31;;;12.15;98.87
43745;BME280;29359;53.048;8.732;2022-10-16T05:50:12;101198.94;;;12.16;99.25
43745;BME280;29359;53.048;8.732;2022-10-16T05:52:14;101200.66;;;12.17;99.16
43745;BME280;29359;53.048;8.732;2022-10-16T05:54:16;101198.84;;;12.19;99.28
43745;BME280;29359;53.048;8.732;2022-10-16T05:56:18;101203.22;;;12.20;99.44
43745;BME280;29359;53.048;8.732;2022-10-16T05:58:19;101207.59;;;12.21;99.39
43745;BME280;29359;53.048;8.732;2022-10-16T06:00:21;101210.22;;;12.23;99.37
43745;BME280;29359;53.048;8.732;2022-10-16T06:02:22;101213.72;;;12.23;99.46
43745;BME280;29359;53.048;8.732;2022-10-16T06:04:24;101213.72;;;12.23;99.59
43745;BME280;29359;53.048;8.732;2022-10-16T06:06:26;101215.44;;;12.24;99.41
43745;BME280;29359;53.048;8.732;2022-10-16T06:08:28;101211.03;;;12.25;99.72
43745;BME280;29359;53.048;8.732;2022-10-16T06:10:29;101218.09;;;12.24;99.40
43745;BME280;29359;53.048;8.732;2022-10-16T06:12:31;101219.84;;;12.25;99.60
43745;BME280;29359;53.048;8.732;2022-10-16T06:14:32;101225.09;;;12.27;99.88
43745;BME280;29359;53.048;8.732;2022-10-16T06:16:35;101225.94;;;12.27;99.94
43745;BME280;29359;53.048;8.732;2022-10-16T06:18:37;101235.63;;;12.29;99.85
43745;BME280;29359;53.048;8.732;2022-10-16T06:20:39;101228.50;;;12.31;99.62
43745;BME280;29359;53.048;8.732;2022-10-16T06:22:40;101230.25;;;12.32;99.49
43745;BME280;29359;53.048;8.732;2022-10-16T06:24:42;101233.72;;;12.34;99.93
43745;BME280;29359;53.048;8.732;2022-10-16T06:26:43;101233.66;;;12.35;99.74
43745;BME280;29359;53.048;8.732;2022-10-16T06:28:45;101237.19;;;12.36;99.91
43745;BME280;29359;53.048;8.732;2022-10-16T06:30:46;101238.00;;;12.38;99.63
43745;BME280;29359;53.048;8.732;2022-10-16T06:32:48;101232.66;;;12.39;99.74
43745;BME280;29359;53.048;8.732;2022-10-16T06:34:50;101230.88;;;12.40;99.66
43745;BME280;29359;53.048;8.732;2022-10-16T06:36:51;101236.09;;;12.43;99.37
43745;BME280;29359;53.048;8.732;2022-10-16T06:38:53;101244.84;;;12.45;99.60
43745;BME280;29359;53.048;8.732;2022-10-16T06:40:54;101243.06;;;12.45;99.39
43745;BME280;29359;53.048;8.732;2022-10-16T06:42:56;101248.31;;;12.47;98.86
43745;BME280;29359;53.048;8.732;2022-10-16T06:44:57;101257.13;;;12.47;99.07
43745;BME280;29359;53.048;8.732;2022-10-16T06:46:59;101260.66;;;12.48;99.23
43745;BME280;29359;53.048;8.732;2022-10-16T06:49:00;101265.94;;;12.48;98.70
43745;BME280;29359;53.048;8.732;2022-10-16T06:53:08;101274.72;;;12.50;98.79
43745;BME280;29359;53.048;8.732;2022-10-16T06:55:09;101273.81;;;12.51;98.50
43745;BME280;29359;53.048;8.732;2022-10-16T06:57:11;101287.81;;;12.54;98.49
43745;BME280;29359;53.048;8.732;2022-10-16T06:59:12;101284.19;;;12.58;98.83
43745;BME280;29359;53.048;8.732;2022-10-16T07:01:15;101284.16;;;12.60;98.28
43745;BME280;29359;53.048;8.732;2022-10-16T07:03:17;101285.84;;;12.63;98.16
43745;BME280;29359;53.048;8.732;2022-10-16T07:05:18;101293.69;;;12.66;97.74
43745;BME280;29359;53.048;8.732;2022-10-16T07:07:20;101289.22;;;12.68;97.79
43745;BME280;29359;53.048;8.732;2022-10-16T07:09:21;101294.38;;;12.72;97.93
43745;BME280;29359;53.048;8.732;2022-10-16T07:11:23;101297.91;;;12.73;97.54
43745;BME280;29359;53.048;8.732;2022-10-16T07:13:25;101299.63;;;12.74;97.44
43745;BME280;29359;53.048;8.732;2022-10-16T07:15:27;101304.84;;;12.77;97.43
43745;BME280;29359;53.048;8.732;2022-10-16T07:17:28;101310.97;;;12.79;97.41
43745;BME280;29359;53.048;8.732;2022-10-16T07:19:30;101312.59;;;12.83;97.41
43745;BME280;29359;53.048;8.732;2022-10-16T07:21:34;101321.25;;;12.89;98.22
43745;BME280;29359;53.048;8.732;2022-10-16T07:23:39;101326.41;;;12.94;97.93
43745;BME280;29359;53.048;8.732;2022-10-16T07:25:41;101325.28;;;13.03;97.90
43745;BME280;29359;53.048;8.732;2022-10-16T07:27:42;101325.09;;;13.09;98.22
43745;BME280;29359;53.048;8.732;2022-10-16T07:29:44;101324.03;;;13.14;98.00
43745;BME280;29359;53.048;8.732;2022-10-16T07:31:46;101330.09;;;13.19;97.97
43745;BME280;29359;53.048;8.732;2022-10-16T07:33:49;101334.38;;;13.24;97.54
43745;BME280;29359;53.048;8.732;2022-10-16T07:35:53;101335.16;;;13.27;97.16
43745;BME280;29359;53.048;8.732;2022-10-16T07:37:55;101335.00;;;13.32;97.02
43745;BME280;29359;53.048;8.732;2022-10-16T07:39:56;101332.25;;;13.35;96.48
43745;BME280;29359;53.048;8.732;2022-10-16T07:41:58;101342.75;;;13.38;96.55
43745;BME280;29359;53.048;8.732;2022-10-16T07:43:59;101336.53;;;13.39;96.26
43745;BME280;29359;53.048;8.732;2022-10-16T07:46:02;101345.38;;;13.39;95.56
43745;BME280;29359;53.048;8.732;2022-10-16T07:48:06;101347.09;;;13.40;95.27
43745;BME280;29359;53.048;8.732;2022-10-16T07:50:08;101353.22;;;13.42;95.49
43745;BME280;29359;53.048;8.732;2022-10-16T07:52:09;101354.13;;;13.41;95.07
43745;BME280;29359;53.048;8.732;2022-10-16T07:54:11;101355.88;;;13.42;95.21
43745;BME280;29359;53.048;8.732;2022-10-16T07:56:13;101365.56;;;13.45;94.64
43745;BME280;29359;53.048;8.732;2022-10-16T07:58:15;101370.66;;;13.51;94.95
43745;BME280;29359;53.048;8.732;2022-10-16T08:00:16;101366.94;;;13.57;95.46
43745;BME280;29359;53.048;8.732;2022-10-16T08:02:18;101371.22;;;13.61;93.63
43745;BME280;29359;53.048;8.732;2022-10-16T08:04:19;101363.78;;;13.72;93.85
43745;BME280;29359;53.048;8.732;2022-10-16T08:06:21;101362.66;;;13.79;93.61
43745;BME280;29359;53.048;8.732;2022-10-16T08:08:28;101371.22;;;13.87;92.94
43745;BME280;29359;53.048;8.732;2022-10-16T08:10:30;101378.06;;;13.96;93.16
43745;BME280;29359;53.048;8.732;2022-10-16T08:12:32;101373.41;;;14.02;92.34
43745;BME280;29359;53.048;8.732;2022-10-16T08:14:34;101378.50;;;14.08;91.53
43745;BME280;29359;53.048;8.732;2022-10-16T08:16:35;101377.41;;;14.14;91.32
43745;BME280;29359;53.048;8.732;2022-10-16T08:18:38;101386.03;;;14.21;91.50
43745;BME280;29359;53.048;8.732;2022-10-16T08:20:41;101388.47;;;14.27;91.64
43745;BME280;29359;53.048;8.732;2022-10-16T08:22:43;101399.78;;;14.33;90.81
43745;BME280;29359;53.048;8.732;2022-10-16T08:24:44;101399.75;;;14.35;90.32
43745;BME280;29359;53.048;8.732;2022-10-16T08:26:45;101407.66;;;14.36;89.94
43745;BME280;29359;53.048;8.732;2022-10-16T08:28:49;101410.16;;;14.41;89.72
43745;BME280;29359;53.048;8.732;2022-10-16T08:30:52;101407.31;;;14.47;89.60
43745;BME280;29359;53.048;8.732;2022-10-16T08:32:53;101413.50;;;14.48;87.99
43745;BME280;29359;53.048;8.732;2022-10-16T08:34:55;101410.78;;;14.49;87.78
43745;BME280;29359;53.048;8.732;2022-10-16T08:36:56;101408.81;;;14.54;88.40
43745;BME280;29359;53.048;8.732;2022-10-16T08:38:58;101405.94;;;14.60;88.70
43745;BME280;29359;53.048;8.732;2022-10-16T08:41:27;101405.59;;;14.69;87.68
43745;BME280;29359;53.048;8.732;2022-10-16T08:43:48;101411.50;;;14.79;87.31
43745;BME280;29359;53.048;8.732;2022-10-16T08:48:08;101414.78;;;14.86;87.63
43745;BME280;29359;53.048;8.732;2022-10-16T08:50:17;101414.66;;;14.89;87.37
43745;BME280;29359;53.048;8.732;2022-10-16T08:52:20;101429.66;;;14.91;86.53
43745;BME280;29359;53.048;8.732;2022-10-16T08:54:28;101428.50;;;14.98;86.71
43745;BME280;29359;53.048;8.732;2022-10-16T08:56:31;101430.97;;;15.03;86.38
43745;BME280;29359;53.048;8.732;2022-10-16T08:58:34;101429.13;;;15.05;85.74
43745;BME280;29359;53.048;8.732;2022-10-16T09:00:35;101428.03;;;15.11;85.66
43745;BME280;29359;53.048;8.732;2022-10-16T09:02:48;101434.09;;;15.14;85.26
43745;BME280;29359;53.048;8.732;2022-10-16T09:05:01;101441.06;;;15.18;84.65
43745;BME280;29359;53.048;8.732;2022-10-16T09:10:03;101447.84;;;15.27;84.14
43745;BME280;29359;53.048;8.732;2022-10-16T09:12:26;101458.22;;;15.33;84.33
43745;BME280;29359;53.048;8.732;2022-10-16T09:14:57;101453.50;;;15.41;84.36
43745;BME280;29359;53.048;8.732;2022-10-16T09:19:37;101456.53;;;15.54;83.40
43745;BME280;29359;53.048;8.732;2022-10-16T09:21:45;101451.88;;;15.60;82.95
43745;BME280;29359;53.048;8.732;2022-10-16T09:23:47;101460.38;;;15.70;82.21
43745;BME280;29359;53.048;8.732;2022-10-16T09:25:50;101461.81;;;15.79;82.64
43745;BME280;29359;53.048;8.732;2022-10-16T09:27:53;101470.66;;;15.79;81.43
43745;BME280;29359;53.048;8.732;2022-10-16T09:29:55;101462.75;;;15.78;80.25
43745;BME280;29359;53.048;8.732;2022-10-16T09:32:15;101464.66;;;15.74;79.98
43745;BME280;29359;53.048;8.732;2022-10-16T09:34:27;101463.78;;;15.74;79.79
43745;BME280;29359;53.048;8.732;2022-10-16T09:36:41;101465.47;;;15.76;80.09
43745;BME280;29359;53.048;8.732;2022-10-16T09:38:43;101473.34;;;15.79;80.70
43745;BME280;29359;53.048;8.732;2022-10-16T09:40:45;101470.41;;;15.85;80.85
43745;BME280;29359;53.048;8.732;2022-10-16T09:42:57;101462.31;;;15.88;80.15
43745;BME280;29359;53.048;8.732;2022-10-16T09:45:03;101464.78;;;15.93;80.22
43745;BME280;29359;53.048;8.732;2022-10-16T09:47:12;101467.25;;;15.97;80.62
43745;BME280;29359;53.048;8.732;2022-10-16T09:49:33;101462.75;;;15.99;79.70
43745;BME280;29359;53.048;8.732;2022-10-16T09:51:36;101468.00;;;16.01;79.46
43745;BME280;29359;53.048;8.732;2022-10-16T09:53:44;101469.81;;;16.00;79.00
43745;BME280;29359;53.048;8.732;2022-10-16T09:55:53;101473.25;;;16.02;79.40
43745;BME280;29359;53.048;8.732;2022-10-16T09:57:55;101471.44;;;16.05;79.53
43745;BME280;29359;53.048;8.732;2022-10-16T09:59:57;101490.03;;;16.06;79.29
43745;BME280;29359;53.048;8.732;2022-10-16T10:02:04;101485.44;;;16.10;78.71
43745;BME280;29359;53.048;8.732;2022-10-16T10:04:12;101490.63;;;16.13;78.43
43745;BME280;29359;53.048;8.732;2022-10-16T10:06:21;101487.72;;;16.19;78.04
43745;BME280;29359;53.048;8.732;2022-10-16T10:08:24;101490.13;;;16.25;78.03
43745;BME280;29359;53.048;8.732;2022-10-16T10:10:28;101485.47;;;16.30;78.13
43745;BME280;29359;53.048;8.732;2022-10-16T10:12:31;101491.34;;;16.38;78.00
43745;BME280;29359;53.048;8.732;2022-10-16T10:14:42;101489.28;;;16.45;77.43
43745;BME280;29359;53.048;8.732;2022-10-16T10:16:46;101493.47;;;16.52;76.77
43745;BME280;29359;53.048;8.732;2022-10-16T10:18:58;101499.47;;;16.57;76.03
43745;BME280;29359;53.048;8.732;2022-10-16T10:21:01;101503.59;;;16.64;76.36
43745;BME280;29359;53.048;8.732;2022-10-16T10:23:24;101513.03;;;16.73;75.55
43745;BME280;29359;53.048;8.732;2022-10-16T10:27:49;101523.22;;;16.83;75.33
43745;BME280;29359;53.048;8.732;2022-10-16T10:30:09;101521.78;;;16.97;75.18
43745;BME280;29359;53.048;8.732;2022-10-16T10:32:30;101529.78;;;17.17;74.70
43745;BME280;29359;53.048;8.732;2022-10-16T10:37:16;101520.59;;;17.43;71.62
43745;BME280;29359;53.048;8.732;2022-10-16T10:39:34;101530.97;;;17.69;72.28
43745;BME280;29359;53.048;8.732;2022-10-16T10:46:22;101531.22;;;18.19;69.07
43745;BME280;29359;53.048;8.732;2022-10-16T10:57:21;101532.94;;;18.93;66.62
43745;BME280;29359;53.048;8.732;2022-10-16T10:59:58;101535.66;;;19.76;64.51
43745;BME280;29359;53.048;8.732;2022-10-16T11:09:00;101523.59;;;21.64;56.96
43745;BME280;29359;53.048;8.732;2022-10-16T11:11:10;101541.09;;;21.72;55.03
43745;BME280;29359;53.048;8.732;2022-10-16T11:13:28;101542.06;;;21.71;53.19
43745;BME280;29359;53.048;8.732;2022-10-16T11:15:35;101536.47;;;21.59;53.72
43745;BME280;29359;53.048;8.732;2022-10-16T11:24:23;101552.16;;;22.49;51.28
43745;BME280;29359;53.048;8.732;2022-10-16T11:26:34;101553.50;;;22.56;51.18
43745;BME280;29359;53.048;8.732;2022-10-16T11:28:41;101559.38;;;22.22;50.37
43745;BME280;29359;53.048;8.732;2022-10-16T11:30:50;101553.47;;;21.31;52.99
43745;BME280;29359;53.048;8.732;2022-10-16T11:33:03;101555.38;;;21.14;53.37
43745;BME280;29359;53.048;8.732;2022-10-16T11:35:17;101557.88;;;21.02;52.50
43745;BME280;29359;53.048;8.732;2022-10-16T11:37:36;101556.63;;;20.78;53.21
43745;BME280;29359;53.048;8.732;2022-10-16T11:39:40;101562.81;;;20.64;53.16
43745;BME280;29359;53.048;8.732;2022-10-16T11:41:50;101564.59;;;20.50;54.82
43745;BME280;29359;53.048;8.732;2022-10-16T11:44:03;101567.78;;;20.56;54.58
43745;BME280;29359;53.048;8.732;2022-10-16T11:46:20;101574.19;;;20.38;54.91
43745;BME280;29359;53.048;8.732;2022-10-16T11:48:30;101565.34;;;20.20;55.45